createdAt,value
2023-02-26T00:01:42.764Z,8.98
2023-02-26T00:04:11.716Z,6.63
2023-02-26T00:06:52.568Z,9.40
2023-02-26T00:09:21.753Z,9.30
2023-02-26T00:11:52.026Z,11.90
2023-02-26T00:14:21.333Z,10.48
2023-02-26T00:16:54.962Z,14.27
2023-02-26T00:19:23.428Z,7.03
2023-02-26T00:21:52.198Z,6.40
2023-02-26T00:24:20.350Z,11.20
2023-02-26T00:26:48.575Z,7.00
2023-02-26T00:29:20.932Z,7.03
2023-02-26T00:31:49.838Z,6.78
2023-02-26T00:34:18.622Z,7.57
2023-02-26T00:36:52.043Z,5.63
2023-02-26T00:39:36.021Z,5.50
2023-02-26T00:42:05.077Z,4.22
2023-02-26T00:44:35.628Z,4.78
2023-02-26T00:47:11.295Z,4.07
2023-02-26T00:49:51.308Z,5.13
2023-02-26T00:52:27.549Z,7.40
2023-02-26T00:54:55.712Z,7.53
2023-02-26T00:57:23.978Z,10.50
2023-02-26T00:59:53.545Z,33.50
2023-02-26T01:02:21.923Z,16.42
2023-02-26T01:04:50.620Z,20.20
2023-02-26T01:07:22.698Z,9.38
2023-02-26T01:09:51.513Z,13.73
2023-02-26T01:12:20.160Z,18.30
2023-02-26T01:14:50.538Z,9.93
2023-02-26T01:17:25.350Z,18.42
2023-02-26T01:19:57.033Z,8.88
2023-02-26T01:22:32.906Z,12.85
2023-02-26T01:25:04.817Z,12.25
2023-02-26T01:27:33.356Z,8.98
2023-02-26T01:30:02.081Z,10.73
2023-02-26T01:32:43.554Z,10.77
2023-02-26T01:35:31.458Z,6.40
2023-02-26T01:38:11.487Z,7.40
2023-02-26T01:41:19.733Z,6.07
2023-02-26T01:43:54.865Z,6.95
2023-02-26T01:46:32.504Z,6.13
2023-02-26T01:49:03.627Z,11.15
2023-02-26T01:51:48.439Z,28.33
2023-02-26T01:54:20.634Z,32.65
2023-02-26T01:56:51.778Z,25.10
2023-02-26T01:59:24.441Z,23.67
2023-02-26T02:01:54.862Z,20.10
2023-02-26T02:04:25.896Z,16.92
2023-02-26T02:06:54.932Z,14.52
2023-02-26T02:09:23.245Z,19.48
2023-02-26T02:12:16.737Z,30.95
2023-02-26T02:14:55.398Z,11.10
2023-02-26T02:17:33.047Z,8.43
2023-02-26T02:20:30.997Z,4.80
2023-02-26T02:23:11.889Z,7.53
2023-02-26T02:26:21.329Z,6.72
2023-02-26T02:29:12.065Z,6.35
2023-02-26T02:31:47.072Z,5.32
2023-02-26T02:34:20.668Z,5.07
2023-02-26T02:36:53.009Z,3.33
2023-02-26T02:39:26.089Z,5.57
2023-02-26T02:41:58.597Z,3.92
2023-02-26T02:44:30.581Z,5.22
2023-02-26T02:47:01.325Z,9.88
2023-02-26T02:49:36.210Z,7.32
2023-02-26T02:52:14.120Z,5.03
2023-02-26T02:54:47.947Z,4.97
2023-02-26T02:57:21.423Z,3.83
2023-02-26T02:59:52.579Z,4.55
2023-02-26T03:02:28.065Z,5.57
2023-02-26T03:04:57.051Z,2.90
2023-02-26T03:07:25.284Z,4.32
2023-02-26T03:09:55.195Z,5.53
2023-02-26T03:12:23.344Z,3.50
2023-02-26T03:14:51.581Z,4.15
2023-02-26T03:17:28.630Z,4.00
2023-02-26T03:20:15.191Z,7.90
2023-02-26T03:22:52.323Z,4.10
2023-02-26T03:25:26.122Z,5.47
2023-02-26T03:27:59.258Z,11.57
2023-02-26T03:30:38.681Z,4.15
2023-02-26T03:33:15.112Z,5.70
2023-02-26T03:35:50.905Z,4.32
2023-02-26T03:38:28.330Z,4.35
2023-02-26T03:41:03.324Z,8.15
2023-02-26T03:43:35.300Z,8.27
2023-02-26T03:48:37.740Z,21.13
2023-02-26T03:51:11.303Z,5.57
2023-02-26T03:53:45.175Z,4.68
2023-02-26T03:56:17.718Z,3.60
2023-02-26T03:58:46.793Z,5.32
2023-02-26T04:01:21.234Z,6.40
2023-02-26T04:03:56.355Z,3.72
2023-02-26T04:06:26.138Z,3.85
2023-02-26T04:08:55.086Z,4.65
2023-02-26T04:11:25.794Z,4.57
2023-02-26T04:13:54.104Z,10.93
2023-02-26T04:16:24.443Z,3.03
2023-02-26T04:18:54.226Z,4.20
2023-02-26T04:21:24.698Z,3.95
2023-02-26T04:23:53.431Z,2.75
2023-02-26T04:26:21.638Z,4.35
2023-02-26T04:28:49.788Z,3.55
2023-02-26T04:31:18.068Z,4.03
2023-02-26T04:33:46.260Z,3.30
2023-02-26T04:36:15.885Z,4.45
2023-02-26T04:38:44.363Z,3.88
2023-02-26T04:41:12.741Z,3.22
2023-02-26T04:43:40.931Z,4.35
2023-02-26T04:46:09.194Z,3.97
2023-02-26T04:48:37.391Z,3.00
2023-02-26T04:51:05.777Z,7.63
2023-02-26T04:53:35.499Z,5.13
2023-02-26T04:56:03.711Z,5.00
2023-02-26T04:58:32.094Z,5.97
2023-02-26T05:01:00.346Z,3.28
2023-02-26T05:03:28.531Z,4.40
2023-02-26T05:05:56.816Z,6.03
2023-02-26T05:08:25.248Z,5.45
2023-02-26T05:10:54.800Z,5.60
2023-02-26T05:13:23.587Z,7.28
2023-02-26T05:15:54.048Z,4.13
2023-02-26T05:18:22.334Z,3.72
2023-02-26T05:20:54.163Z,4.22
2023-02-26T05:23:22.740Z,4.82
2023-02-26T05:25:51.079Z,2.60
2023-02-26T05:28:20.722Z,5.68
2023-02-26T05:30:48.893Z,2.92
2023-02-26T05:33:17.075Z,4.18
2023-02-26T05:35:45.476Z,4.10
2023-02-26T05:38:13.752Z,3.15
2023-02-26T05:40:42.351Z,5.88
2023-02-26T05:43:10.527Z,4.10
2023-02-26T05:45:40.081Z,7.00
2023-02-26T05:48:08.427Z,3.33
2023-02-26T05:50:36.702Z,7.70
2023-02-26T05:53:04.890Z,2.83
2023-02-26T05:55:33.206Z,4.07
2023-02-26T05:58:01.521Z,3.92
2023-02-26T06:00:29.701Z,5.05
2023-02-26T06:02:59.502Z,3.47
2023-02-26T06:05:27.687Z,3.08
2023-02-26T06:07:55.859Z,3.72
2023-02-26T06:10:24.026Z,2.17
2023-02-26T06:12:52.195Z,2.78
2023-02-26T06:15:20.535Z,3.17
2023-02-26T06:17:49.181Z,2.47
2023-02-26T06:20:21.669Z,2.97
2023-02-26T06:22:49.870Z,4.80
2023-02-26T06:25:18.346Z,5.10
2023-02-26T06:27:46.528Z,2.30
2023-02-26T06:30:14.985Z,4.97
2023-02-26T06:32:43.144Z,4.05
2023-02-26T06:35:11.963Z,2.50
2023-02-26T06:37:41.547Z,6.82
2023-02-26T06:40:12.070Z,3.22
2023-02-26T06:42:40.257Z,2.92
2023-02-26T06:45:09.271Z,3.25
2023-02-26T06:47:37.440Z,4.22
2023-02-26T06:50:06.282Z,2.95
2023-02-26T06:52:35.246Z,4.35
2023-02-26T06:55:05.165Z,4.00
2023-02-26T06:57:33.338Z,5.20
2023-02-26T07:00:02.473Z,6.50
2023-02-26T07:02:30.737Z,3.15
2023-02-26T07:04:58.897Z,4.32
2023-02-26T07:07:27.299Z,3.00
2023-02-26T07:09:55.694Z,3.35
2023-02-26T07:12:25.224Z,3.95
2023-02-26T07:14:53.485Z,5.22
2023-02-26T07:17:21.686Z,4.65
2023-02-26T07:19:50.301Z,5.38
2023-02-26T07:22:22.310Z,2.55
2023-02-26T07:24:51.415Z,6.00
2023-02-26T07:27:19.957Z,2.72
2023-02-26T07:29:49.487Z,4.47
2023-02-26T07:32:17.784Z,5.40
2023-02-26T07:34:45.993Z,3.17
2023-02-26T07:37:14.362Z,4.60
2023-02-26T07:39:42.521Z,3.25
2023-02-26T07:42:10.699Z,4.07
2023-02-26T07:44:38.876Z,3.33
2023-02-26T07:47:08.468Z,4.05
2023-02-26T07:49:36.759Z,3.50
2023-02-26T07:52:07.033Z,4.68
2023-02-26T07:54:35.334Z,4.28
2023-02-26T07:57:03.545Z,2.50
2023-02-26T07:59:31.838Z,2.90
2023-02-26T08:01:59.985Z,4.78
2023-02-26T08:04:29.990Z,6.07
2023-02-26T08:06:58.589Z,5.15
2023-02-26T08:09:26.785Z,5.82
2023-02-26T08:11:55.131Z,6.00
2023-02-26T08:14:24.045Z,6.55
2023-02-26T08:16:53.219Z,7.88
2023-02-26T08:19:21.384Z,5.10
2023-02-26T08:21:50.962Z,3.95
2023-02-26T08:24:19.298Z,5.78
2023-02-26T08:26:47.448Z,3.17
2023-02-26T08:29:15.619Z,4.50
2023-02-26T08:31:43.943Z,3.53
2023-02-26T08:34:12.213Z,3.63
2023-02-26T08:36:40.399Z,3.97
2023-02-26T08:39:09.945Z,2.42
2023-02-26T08:41:38.095Z,4.07
2023-02-26T08:44:07.062Z,3.13
2023-02-26T08:46:35.329Z,5.65
2023-02-26T08:49:03.553Z,2.35
2023-02-26T08:51:31.741Z,2.85
2023-02-26T08:53:59.913Z,3.22
2023-02-26T08:56:29.524Z,3.03
2023-02-26T08:58:57.676Z,2.28
2023-02-26T09:01:26.121Z,1.92
2023-02-26T09:03:55.036Z,3.15
2023-02-26T09:06:23.404Z,3.30
2023-02-26T09:08:51.714Z,3.53
2023-02-26T09:11:20.074Z,2.70
2023-02-26T09:13:49.939Z,2.75
2023-02-26T09:16:18.129Z,5.38
2023-02-26T09:18:46.276Z,3.67
2023-02-26T09:21:14.434Z,6.07
2023-02-26T09:23:42.605Z,1.95
2023-02-26T09:26:10.766Z,2.30
2023-02-26T09:28:38.954Z,3.22
2023-02-26T09:31:08.798Z,2.45
2023-02-26T09:33:37.148Z,1.90
2023-02-26T09:36:05.896Z,3.60
2023-02-26T09:38:35.900Z,6.80
2023-02-26T09:41:07.160Z,3.25
2023-02-26T09:43:50.409Z,3.15
2023-02-26T09:46:31.721Z,4.05
2023-02-26T09:49:14.497Z,1.25
2023-02-26T09:51:43.382Z,2.33
2023-02-26T09:54:18.988Z,3.17
2023-02-26T09:56:48.109Z,3.55
2023-02-26T09:59:16.354Z,3.20
2023-02-26T10:01:53.225Z,2.15
2023-02-26T10:04:28.629Z,3.90
2023-02-26T10:07:10.128Z,2.58
2023-02-26T10:09:55.553Z,1.13
2023-02-26T10:12:26.796Z,2.35
2023-02-26T10:15:00.224Z,1.95
2023-02-26T10:17:34.677Z,2.28
2023-02-26T10:20:06.749Z,2.72
2023-02-26T10:22:39.913Z,2.10
2023-02-26T10:25:14.659Z,2.70
2023-02-26T10:27:53.566Z,1.58
2023-02-26T10:30:31.514Z,3.85
2023-02-26T10:33:12.859Z,2.22
2023-02-26T10:35:48.634Z,3.75
2023-02-26T10:38:21.020Z,2.33
2023-02-26T10:40:52.355Z,1.73
2023-02-26T10:43:24.329Z,6.40
2023-02-26T10:48:48.185Z,3.10
2023-02-26T10:51:19.805Z,1.90
2023-02-26T10:53:52.259Z,2.70
2023-02-26T10:56:26.047Z,1.83
2023-02-26T10:58:55.065Z,2.00
2023-02-26T11:01:26.190Z,7.70
2023-02-26T11:04:01.570Z,1.90
2023-02-26T11:06:33.345Z,3.97
2023-02-26T11:09:03.561Z,3.55
2023-02-26T11:11:42.487Z,2.22
2023-02-26T11:14:11.523Z,1.65
2023-02-26T11:16:47.044Z,1.20
2023-02-26T11:19:18.060Z,1.98
2023-02-26T11:21:48.754Z,1.60
2023-02-26T11:24:32.725Z,1.40
2023-02-26T11:27:04.216Z,5.18
2023-02-26T11:29:39.554Z,1.75
2023-02-26T11:32:08.732Z,1.83
2023-02-26T11:34:38.513Z,1.67
2023-02-26T11:37:07.990Z,1.70
2023-02-26T11:39:39.796Z,1.85
2023-02-26T11:42:08.226Z,1.35
2023-02-26T11:44:39.790Z,1.10
2023-02-26T11:47:13.464Z,2.85
2023-02-26T11:49:46.674Z,1.73
2023-02-26T11:52:23.724Z,1.80
2023-02-26T11:54:56.571Z,8.32
2023-02-26T11:57:27.898Z,2.58
2023-02-26T11:59:56.958Z,1.58
2023-02-26T12:02:29.412Z,1.85
2023-02-26T12:05:01.844Z,1.45
2023-02-26T12:07:31.471Z,1.45
2023-02-26T12:09:59.859Z,1.30
2023-02-26T12:12:58.394Z,1.95
2023-02-26T12:15:33.309Z,3.95
2023-02-26T12:18:28.606Z,2.58
2023-02-26T12:21:10.103Z,2.35
2023-02-26T12:24:00.970Z,0.90
2023-02-26T12:26:34.054Z,0.93
2023-02-26T12:29:34.710Z,1.50
2023-02-26T12:32:31.591Z,0.85
2023-02-26T12:35:21.483Z,0.63
2023-02-26T12:38:00.102Z,1.13
2023-02-26T12:41:03.123Z,2.88
2023-02-26T12:43:40.414Z,2.30
2023-02-26T12:46:21.227Z,2.47
2023-02-26T12:49:20.912Z,0.98
2023-02-26T12:52:07.185Z,2.28
2023-02-26T12:54:53.519Z,1.48
2023-02-26T12:57:46.886Z,2.58
2023-02-26T13:00:35.263Z,1.85
2023-02-26T13:03:23.617Z,2.50
2023-02-26T13:06:07.049Z,0.70
2023-02-26T13:08:42.381Z,1.50
2023-02-26T13:11:23.154Z,3.55
2023-02-26T13:14:02.836Z,6.72
2023-02-26T13:16:43.687Z,3.38
2023-02-26T13:19:24.035Z,3.13
2023-02-26T13:21:57.326Z,4.45
2023-02-26T13:24:29.835Z,5.40
2023-02-26T13:27:00.960Z,4.75
2023-02-26T13:29:34.071Z,4.13
2023-02-26T13:32:05.771Z,2.30
2023-02-26T13:34:40.786Z,4.78
2023-02-26T13:37:24.654Z,17.58
2023-02-26T13:40:02.301Z,4.13
2023-02-26T13:42:40.736Z,6.05
2023-02-26T13:45:28.276Z,2.03
2023-02-26T13:48:11.502Z,2.45
2023-02-26T13:50:48.396Z,3.28
2023-02-26T13:53:51.869Z,2.47
2023-02-26T13:56:24.544Z,2.67
2023-02-26T13:59:01.839Z,1.48
2023-02-26T14:01:33.851Z,2.55
2023-02-26T14:04:23.292Z,3.08
2023-02-26T14:06:54.777Z,1.92
2023-02-26T14:09:46.951Z,2.33
2023-02-26T14:12:31.984Z,1.38
2023-02-26T14:15:30.545Z,2.40
2023-02-26T14:18:07.377Z,1.63
2023-02-26T14:20:37.332Z,0.77
2023-02-26T14:23:34.594Z,1.13
2023-02-26T14:26:14.386Z,4.78
2023-02-26T14:28:46.352Z,1.13
2023-02-26T14:33:49.057Z,1.05
2023-02-26T14:36:22.561Z,1.17
2023-02-26T14:38:52.873Z,2.00
2023-02-26T14:41:28.474Z,1.00
2023-02-26T14:44:03.757Z,1.27
2023-02-26T14:46:34.952Z,0.75
2023-02-26T14:49:03.447Z,2.05
2023-02-26T14:51:43.129Z,2.10
2023-02-26T14:54:55.981Z,4.53
2023-02-26T14:57:33.149Z,1.75
2023-02-26T15:00:13.958Z,1.58
2023-02-26T15:03:09.080Z,1.10
2023-02-26T15:05:45.350Z,1.67
2023-02-26T15:08:39.570Z,1.35
2023-02-26T15:11:33.725Z,1.70
2023-02-26T15:14:19.649Z,1.55
2023-02-26T15:17:00.159Z,3.35
2023-02-26T15:19:53.768Z,1.90
2023-02-26T15:22:37.721Z,3.10
2023-02-26T15:25:08.339Z,2.25
2023-02-26T15:27:36.748Z,2.05
2023-02-26T15:30:06.312Z,2.00
2023-02-26T15:32:41.144Z,1.55
2023-02-26T15:35:17.521Z,2.72
2023-02-26T15:37:50.968Z,1.23
2023-02-26T15:40:20.283Z,1.80
2023-02-26T15:42:53.040Z,3.35
2023-02-26T15:45:27.273Z,2.88
2023-02-26T15:47:58.482Z,1.98
2023-02-26T15:50:32.351Z,3.45
2023-02-26T15:53:03.265Z,2.30
2023-02-26T15:55:35.933Z,2.50
2023-02-26T15:58:06.320Z,3.90
2023-02-26T16:00:37.911Z,2.85
2023-02-26T16:03:06.171Z,1.92
2023-02-26T16:05:36.721Z,2.08
2023-02-26T16:08:04.926Z,1.23
2023-02-26T16:10:38.199Z,3.03
2023-02-26T16:13:08.673Z,2.25
2023-02-26T16:15:40.029Z,2.15
2023-02-26T16:18:10.475Z,2.83
2023-02-26T16:20:44.095Z,3.05
2023-02-26T16:23:15.141Z,4.10
2023-02-26T16:25:51.409Z,4.17
2023-02-26T16:28:22.718Z,5.18
2023-02-26T16:30:54.574Z,4.80
2023-02-26T16:33:24.805Z,4.32
2023-02-26T16:35:57.972Z,13.38
2023-02-26T16:38:28.455Z,7.85
2023-02-26T16:40:59.730Z,5.57
2023-02-26T16:43:52.633Z,4.70
2023-02-26T16:46:27.661Z,6.45
2023-02-26T16:48:59.276Z,6.72
2023-02-26T16:51:32.137Z,4.57
2023-02-26T16:54:03.144Z,1.90
2023-02-26T16:56:33.698Z,6.83
2023-02-26T16:59:07.032Z,2.38
2023-02-26T17:01:38.953Z,5.07
2023-02-26T17:06:40.042Z,3.30
2023-02-26T17:09:10.357Z,2.90
2023-02-26T17:11:44.523Z,1.55
2023-02-26T17:14:19.226Z,1.77
2023-02-26T17:16:47.942Z,1.42
2023-02-26T17:19:16.430Z,2.42
2023-02-26T17:21:49.073Z,1.52
2023-02-26T17:24:21.553Z,2.05
2023-02-26T17:26:49.986Z,2.15
2023-02-26T17:29:23.136Z,2.17
2023-02-26T17:31:51.688Z,4.07
2023-02-26T17:34:22.263Z,5.00
2023-02-26T17:36:51.945Z,10.32
2023-02-26T17:39:20.088Z,8.50
2023-02-26T17:41:49.119Z,2.50
2023-02-26T17:44:17.567Z,5.53
2023-02-26T17:46:45.767Z,3.47
2023-02-26T17:49:14.339Z,3.95
2023-02-26T17:51:42.651Z,3.75
2023-02-26T17:54:12.189Z,3.88
2023-02-26T17:56:42.240Z,1.67
2023-02-26T17:59:13.005Z,2.17
2023-02-26T18:01:41.187Z,2.63
2023-02-26T18:04:09.579Z,3.90
2023-02-26T18:06:38.907Z,3.58
2023-02-26T18:09:07.626Z,1.90
2023-02-26T18:11:37.213Z,1.40
2023-02-26T18:14:06.141Z,1.75
2023-02-26T18:16:38.963Z,2.78
2023-02-26T18:19:07.992Z,2.03
2023-02-26T18:21:36.168Z,4.28
2023-02-26T18:24:04.567Z,1.92
2023-02-26T18:26:34.477Z,1.92
2023-02-26T18:29:04.048Z,2.75
2023-02-26T18:31:35.068Z,1.70
2023-02-26T18:34:04.203Z,2.92
2023-02-26T18:36:37.621Z,2.70
2023-02-26T18:39:07.977Z,4.03
2023-02-26T18:41:36.425Z,1.70
2023-02-26T18:44:05.992Z,2.65
2023-02-26T18:46:38.563Z,2.70
2023-02-26T18:49:06.850Z,7.82
2023-02-26T18:51:35.307Z,4.70
2023-02-26T18:54:03.472Z,1.90
2023-02-26T18:56:31.625Z,1.80
2023-02-26T18:58:59.782Z,4.22
2023-02-26T19:01:30.223Z,3.22
2023-02-26T19:03:58.848Z,5.20
2023-02-26T19:06:27.014Z,6.07
2023-02-26T19:08:55.393Z,1.95
2023-02-26T19:11:23.973Z,1.85
2023-02-26T19:13:52.526Z,2.35
2023-02-26T19:16:22.811Z,3.42
2023-02-26T19:18:52.410Z,1.15
2023-02-26T19:21:20.588Z,3.17
2023-02-26T19:23:48.810Z,2.22
2023-02-26T19:26:16.967Z,4.28
2023-02-26T19:28:45.235Z,2.53
2023-02-26T19:31:13.468Z,3.50
2023-02-26T19:33:41.723Z,1.08
2023-02-26T19:36:11.745Z,3.13
2023-02-26T19:38:39.899Z,5.15
2023-02-26T19:41:08.533Z,3.30
2023-02-26T19:43:36.721Z,4.30
2023-02-26T19:46:05.105Z,3.03
2023-02-26T19:48:33.272Z,1.80
2023-02-26T19:51:03.104Z,2.33
2023-02-26T19:53:33.926Z,3.53
2023-02-26T19:56:02.178Z,1.85
2023-02-26T19:58:31.102Z,4.15
2023-02-26T20:01:00.354Z,4.38
2023-02-26T20:03:29.437Z,3.25
2023-02-26T20:05:58.366Z,2.95
2023-02-26T20:08:29.498Z,5.13
2023-02-26T20:10:59.744Z,3.17
2023-02-26T20:13:30.157Z,2.35
2023-02-26T20:15:59.523Z,4.95
2023-02-26T20:18:28.829Z,2.97
2023-02-26T20:20:56.995Z,3.33
2023-02-26T20:23:25.241Z,3.95
2023-02-26T20:25:56.264Z,3.67
2023-02-26T20:28:26.305Z,4.37
2023-02-26T20:30:55.316Z,4.30
2023-02-26T20:33:23.604Z,3.22
2023-02-26T20:35:52.186Z,4.38
2023-02-26T20:38:21.887Z,4.78
2023-02-26T20:40:50.220Z,4.22
2023-02-26T20:43:18.630Z,4.05
2023-02-26T20:45:49.541Z,4.45
2023-02-26T20:48:17.785Z,4.00
2023-02-26T20:50:45.968Z,5.47
2023-02-26T20:53:14.259Z,3.95
2023-02-26T20:55:42.428Z,3.47
2023-02-26T20:58:10.636Z,3.83
2023-02-26T21:00:39.096Z,3.58
2023-02-26T21:03:09.023Z,4.32
2023-02-26T21:05:38.603Z,4.65
2023-02-26T21:08:06.797Z,3.53
2023-02-26T21:10:35.121Z,4.38
2023-02-26T21:13:03.325Z,2.90
2023-02-26T21:15:31.497Z,3.75
2023-02-26T21:17:59.666Z,4.72
2023-02-26T21:20:29.228Z,2.60
2023-02-26T21:22:57.582Z,4.85
2023-02-26T21:25:26.029Z,2.90
2023-02-26T21:27:54.313Z,2.33
2023-02-26T21:30:24.267Z,3.28
2023-02-26T21:32:52.498Z,5.30
2023-02-26T21:35:20.759Z,8.77
2023-02-26T21:37:50.360Z,13.13
2023-02-26T21:40:18.866Z,11.10
2023-02-26T21:42:47.038Z,6.25
2023-02-26T21:45:15.182Z,4.18
2023-02-26T21:47:43.623Z,5.07
2023-02-26T21:50:12.676Z,4.25
2023-02-26T21:52:40.922Z,4.65
2023-02-26T21:55:11.559Z,4.85
2023-02-26T21:57:40.346Z,5.30
2023-02-26T22:00:11.292Z,3.17
2023-02-26T22:02:39.875Z,3.95
2023-02-26T22:05:09.936Z,3.55
2023-02-26T22:07:38.574Z,2.55
2023-02-26T22:10:08.159Z,2.78
2023-02-26T22:12:37.783Z,3.80
2023-02-26T22:15:07.136Z,3.80
2023-02-26T22:17:35.304Z,3.65
2023-02-26T22:20:06.383Z,4.75
2023-02-26T22:22:34.571Z,3.67
2023-02-26T22:25:03.113Z,3.95
2023-02-26T22:27:31.481Z,5.00
2023-02-26T22:30:01.245Z,6.53
2023-02-26T22:32:29.574Z,12.45
2023-02-26T22:34:57.898Z,7.50
2023-02-26T22:37:26.091Z,6.28
2023-02-26T22:39:54.255Z,12.57
2023-02-26T22:42:22.464Z,20.58
2023-02-26T22:44:50.729Z,10.90
2023-02-26T22:47:20.286Z,11.32
2023-02-26T22:49:48.907Z,23.15
2023-02-26T22:52:17.219Z,21.73
2023-02-26T22:54:46.498Z,16.27
2023-02-26T22:57:14.836Z,13.23
2023-02-26T22:59:43.162Z,24.67
2023-02-26T23:02:11.375Z,25.77
2023-02-26T23:04:41.016Z,21.55
2023-02-26T23:07:09.495Z,21.58
2023-02-26T23:09:37.762Z,14.48
2023-02-26T23:12:06.592Z,32.75
2023-02-26T23:14:34.783Z,35.60
2023-02-26T23:17:04.092Z,43.67
2023-02-26T23:19:32.302Z,39.95
2023-02-26T23:22:01.969Z,13.65
2023-02-26T23:24:30.150Z,5.57
2023-02-26T23:26:58.368Z,7.20
2023-02-26T23:29:26.602Z,27.85
2023-02-26T23:31:55.108Z,14.30
2023-02-26T23:34:23.351Z,6.75
2023-02-26T23:36:51.608Z,4.13
2023-02-26T23:39:21.234Z,4.72
2023-02-26T23:41:50.170Z,2.50
2023-02-26T23:44:18.362Z,3.72
2023-02-26T23:46:46.544Z,3.03
2023-02-26T23:49:16.325Z,3.85
2023-02-26T23:51:44.634Z,3.22
2023-02-26T23:54:13.241Z,4.35
2023-02-26T23:56:43.078Z,2.92
2023-02-26T23:59:11.239Z,3.38
